Terminal Aerodrome Forecast
Issued by NWS

Current Version | Previous Version | Text Only | Print | Product List | Glossary Off
Versions: 1 2 3 4 5 6 7 8 9 10 11 12 13 14 15 16 17 18 19 20 21 22 23

683
FTUS41 KILN 190822 AAA
TAFLCK
TAF AMD
KLCK 190822Z 1908/2006 24007KT P6SM SCT100
      TEMPO 1908/1911 5SM BR OVC012
     FM191100 27006KT 3SM BR OVC012
     FM191500 28008KT P6SM SCT015
     FM191700 28008KT P6SM SCT025
     FM200000 25005KT P6SM SCT250=

USA.gov is the U.S. government's official web portal to all federal, state and local government web resources and services.